Time;durP1;ratioP1;P1;durP2;ratioP2;P2;SDS_P1;SDS_P2;PMS_P1;PMS_P2;Temp;Humidity;BMP_temperature;BMP_pressure;BME280_temperature;BME280_humidity;BME280_pressure;Samples;Min_cycle;Max_cycle;Signal;HPM_P1;HPM_P2
2022/06/20 00:01:24;;;;;;;5.65;3.25;;;;;;;21.53;59.58;99914.66;5075247;28;20115;-73
2022/06/20 00:03:54;;;;;;;13.07;4.10;;;;;;;21.46;59.98;99912.78;5074969;28;20094;-75
2022/06/20 00:06:24;;;;;;;8.30;3.45;;;;;;;21.32;60.57;99900.72;5074977;28;20040;-77
2022/06/20 00:08:53;;;;;;;7.85;3.20;;;;;;;21.35;60.45;99900.41;5074915;28;20102;-76
2022/06/20 00:11:24;;;;;;;5.78;3.13;;;;;;;21.25;60.50;99905.97;5074962;28;20049;-76
2022/06/20 00:13:55;;;;;;;6.07;3.70;;;;;;;21.23;60.71;99904.41;5075125;28;20055;-76
2022/06/20 00:16:25;;;;;;;5.75;3.25;;;;;;;21.12;60.87;99909.16;5074967;28;20474;-77
2022/06/20 00:18:55;;;;;;;5.80;2.85;;;;;;;21.01;61.22;99909.50;5074856;28;20420;-77
2022/06/20 00:21:24;;;;;;;9.45;3.28;;;;;;;21.02;61.31;99897.63;5074636;28;20049;-77
2022/06/20 00:23:52;;;;;;;6.93;3.20;;;;;;;21.08;60.97;99896.13;5074742;28;20468;-78
2022/06/20 00:26:20;;;;;;;10.25;3.45;;;;;;;20.90;61.55;99892.72;5074283;28;20052;-79
2022/06/20 00:28:49;;;;;;;6.90;3.22;;;;;;;20.84;62.22;99899.63;5074605;28;20098;-79
2022/06/20 00:31:17;;;;;;;7.93;3.08;;;;;;;20.93;61.80;99878.81;5074421;28;20040;-77
2022/06/20 00:33:48;;;;;;;6.03;3.10;;;;;;;20.85;62.21;99877.81;5074246;28;20440;-79
2022/06/20 00:36:18;;;;;;;8.93;3.65;;;;;;;20.83;62.23;99881.69;5073900;28;20552;-79
2022/06/20 00:38:51;;;;;;;6.72;3.70;;;;;;;20.77;62.04;99880.50;5074239;28;20054;-79
2022/06/20 00:41:21;;;;;;;;;;;;;;;20.57;63.31;99885.38;5074732;28;20105;-79
2022/06/20 00:43:52;;;;;;;7.32;3.22;;;;;;;20.53;63.79;99880.44;5074100;28;19920;-78
2022/06/20 00:46:26;;;;;;;7.50;3.42;;;;;;;20.46;65.05;99880.25;5074584;28;20068;-76
2022/06/20 00:49:01;;;;;;;7.75;3.17;;;;;;;20.49;65.41;99888.06;5073299;28;20071;-75
2022/06/20 00:51:41;;;;;;;8.25;3.17;;;;;;;20.47;64.96;99886.53;5074317;28;20055;-75
2022/06/20 00:54:15;;;;;;;8.35;3.50;;;;;;;20.47;64.95;99883.81;5072648;28;20072;-75
2022/06/20 00:56:50;;;;;;;5.65;3.33;;;;;;;20.52;65.06;99882.28;5075453;28;20044;-75
2022/06/20 00:59:26;;;;;;;5.72;3.20;;;;;;;20.59;63.90;99871.66;5073862;28;20093;-75
2022/06/20 01:01:55;;;;;;;7.47;3.28;;;;;;;20.56;63.93;99872.84;5074112;28;20539;-75
2022/06/20 01:04:30;;;;;;;6.45;3.30;;;;;;;20.46;64.11;99866.72;5073787;28;20110;-73
2022/06/20 01:07:03;;;;;;;9.02;3.10;;;;;;;20.47;64.50;99864.84;5073840;28;20041;-75
2022/06/20 01:09:38;;;;;;;6.05;3.10;;;;;;;20.45;64.74;99865.00;5074163;28;20036;-75
2022/06/20 01:12:13;;;;;;;6.80;3.78;;;;;;;20.35;65.22;99860.69;5072330;28;20055;-75
2022/06/20 01:14:41;;;;;;;6.75;2.72;;;;;;;20.34;64.67;99867.13;5073933;28;20047;-75
2022/06/20 01:17:20;;;;;;;7.72;3.50;;;;;;;20.36;64.43;99860.53;5073267;28;20425;-75
2022/06/20 01:20:01;;;;;;;6.85;3.25;;;;;;;20.22;65.08;99853.91;5073541;28;20041;-75
2022/06/20 01:22:46;;;;;;;8.27;3.40;;;;;;;20.21;65.07;99845.94;5073730;28;20119;-75
2022/06/20 01:25:47;;;;;;;7.18;3.50;;;;;;;20.15;65.64;99835.75;5072155;28;20052;-75
2022/06/20 01:28:22;;;;;;;5.50;3.13;;;;;;;20.22;65.00;99825.97;5070167;28;20535;-75
2022/06/20 01:30:51;;;;;;;6.85;3.42;;;;;;;20.20;65.00;99834.25;5073643;28;20044;-74
2022/06/20 01:33:22;;;;;;;7.75;3.30;;;;;;;20.22;65.14;99828.69;5073333;28;20048;-75
2022/06/20 01:38:38;;;;;;;7.45;3.50;;;;;;;20.26;64.58;99822.75;5073106;28;20040;-75
2022/06/20 01:43:56;;;;;;;10.50;4.13;;;;;;;20.16;64.78;99830.16;5073433;28;20461;-75
2022/06/20 01:46:29;;;;;;;7.32;3.90;;;;;;;20.10;65.03;99828.13;5073279;28;20040;-75
2022/06/20 01:49:00;;;;;;;6.05;3.45;;;;;;;20.20;64.15;99831.56;5073624;28;20049;-75
2022/06/20 01:51:43;;;;;;;7.25;3.20;;;;;;;20.20;63.81;99828.00;5073526;28;20045;-76
2022/06/20 01:54:14;;;;;;;6.45;3.35;;;;;;;20.25;63.70;99825.63;5072831;28;20036;-75
2022/06/20 01:56:44;;;;;;;5.18;3.40;;;;;;;20.15;63.85;99825.78;5072536;28;20086;-75
2022/06/20 01:59:20;;;;;;;6.93;3.58;;;;;;;20.01;64.33;99824.53;5073704;28;20037;-75
2022/06/20 02:01:51;;;;;;;7.30;3.63;;;;;;;19.91;65.25;99833.81;5073513;28;20047;-75
2022/06/20 02:04:23;;;;;;;7.53;3.78;;;;;;;19.91;65.20;99823.81;5073273;28;20041;-73
2022/06/20 02:06:53;;;;;;;10.00;4.97;;;;;;;19.89;65.47;99811.47;5073317;28;20094;-73
2022/06/20 02:09:21;;;;;;;8.88;5.80;;;;;;;20.09;64.66;99812.06;5073070;28;20052;-73
2022/06/20 02:11:50;;;;;;;8.35;6.05;;;;;;;20.07;64.89;99806.78;5073320;28;20044;-75
2022/06/20 02:14:24;;;;;;;8.75;5.80;;;;;;;20.00;64.92;99800.34;5072621;28;20040;-76
2022/06/20 02:16:56;;;;;;;8.05;5.43;;;;;;;19.95;65.36;99798.13;5073180;28;20046;-73
2022/06/20 02:19:30;;;;;;;7.68;5.80;;;;;;;19.96;64.97;99788.97;5072973;28;20396;-73
2022/06/20 02:22:01;;;;;;;9.95;5.70;;;;;;;19.91;65.64;99795.91;5073262;28;20080;-73
2022/06/20 02:24:33;;;;;;;8.25;5.63;;;;;;;19.85;66.32;99785.72;5073160;28;20041;-73
2022/06/20 02:27:04;;;;;;;7.50;5.20;;;;;;;19.94;65.77;99791.00;5072917;28;20045;-74
2022/06/20 02:29:34;;;;;;;10.80;5.30;;;;;;;19.84;66.64;99793.00;5072992;28;20397;-73
2022/06/20 02:32:10;;;;;;;6.72;5.00;;;;;;;19.67;67.53;99791.22;5072609;28;20132;-75
2022/06/20 02:34:41;;;;;;;8.15;5.20;;;;;;;19.73;67.41;99783.31;5073102;28;20037;-71
2022/06/20 02:37:14;;;;;;;8.98;5.55;;;;;;;19.65;67.76;99780.56;5072452;28;20070;-74
2022/06/20 02:39:43;;;;;;;;;;;;;;;19.69;67.29;99778.41;5072929;28;20094;-73
2022/06/20 02:42:15;;;;;;;10.23;5.03;;;;;;;19.43;68.91;99773.84;5072651;28;19963;-73
2022/06/20 02:44:49;;;;;;;5.78;4.05;;;;;;;19.38;69.00;99778.03;5072986;28;20401;-73
2022/06/20 02:47:20;;;;;;;10.40;4.57;;;;;;;19.30;69.76;99778.84;5072616;28;20044;-73
2022/06/20 02:49:52;;;;;;;7.88;4.20;;;;;;;19.32;69.77;99774.13;5072783;28;20127;-73
2022/06/20 02:52:23;;;;;;;6.55;4.40;;;;;;;19.37;69.36;99776.31;5072469;28;20040;-73
2022/06/20 02:54:53;;;;;;;7.55;4.40;;;;;;;19.72;67.66;99778.91;5072762;28;20094;-72
2022/06/20 02:57:31;;;;;;;7.53;4.22;;;;;;;19.65;67.42;99779.72;5072473;28;20033;-72
2022/06/20 03:00:05;;;;;;;7.45;3.92;;;;;;;19.57;67.95;99787.78;5072305;28;20044;-73
2022/06/20 03:02:41;;;;;;;6.80;4.00;;;;;;;19.63;67.97;99784.47;5072443;28;20040;-71
2022/06/20 03:05:09;;;;;;;8.25;4.03;;;;;;;19.62;67.89;99782.75;5072401;28;20036;-74
2022/06/20 03:07:39;;;;;;;8.52;3.95;;;;;;;19.58;68.60;99784.94;5074738;28;20055;-72
2022/06/20 03:10:21;;;;;;;9.55;3.90;;;;;;;19.61;68.37;99794.59;5075429;28;20115;-72
2022/06/20 03:12:50;;;;;;;6.15;4.05;;;;;;;19.87;66.92;99789.13;5075867;28;20128;-72
2022/06/20 03:15:20;;;;;;;5.93;3.55;;;;;;;19.90;66.34;99788.81;5075767;28;20094;-72
2022/06/20 03:17:50;;;;;;;6.13;3.85;;;;;;;19.60;68.00;99784.78;5076130;28;20079;-72
2022/06/20 03:20:21;;;;;;;6.43;3.75;;;;;;;19.71;67.84;99776.38;5075680;28;20557;-72
2022/06/20 03:22:53;;;;;;;6.20;3.67;;;;;;;19.95;67.03;99781.88;5076026;28;20051;-72
2022/06/20 03:25:23;;;;;;;5.85;3.85;;;;;;;20.18;66.16;99775.88;5075806;28;20071;-72
2022/06/20 03:27:52;;;;;;;7.38;3.80;;;;;;;20.38;65.78;99771.84;5075858;28;20050;-74
2022/06/20 03:30:29;;;;;;;7.88;3.75;;;;;;;20.45;65.64;99767.47;5075564;28;20044;-74
2022/06/20 03:32:59;;;;;;;6.72;3.58;;;;;;;20.54;65.33;99761.06;5075532;28;20040;-74
2022/06/20 03:35:30;;;;;;;8.88;4.15;;;;;;;21.21;62.75;99762.72;5074200;28;20053;-74
2022/06/20 03:38:00;;;;;;;7.38;3.88;;;;;;;22.03;59.12;99768.75;5075679;28;20097;-74
2022/06/20 03:40:29;;;;;;;7.00;4.00;;;;;;;22.80;56.51;99769.63;5075602;28;20087;-77
2022/06/20 03:42:59;;;;;;;7.88;3.85;;;;;;;23.83;52.56;99768.94;5075607;28;20481;-77
2022/06/20 03:45:36;;;;;;;8.48;3.70;;;;;;;24.43;50.99;99767.81;5075341;28;20040;-76
2022/06/20 03:48:11;;;;;;;6.75;3.78;;;;;;;24.83;49.63;99767.16;5074250;28;20558;-76
2022/06/20 03:50:50;;;;;;;9.40;3.95;;;;;;;24.88;50.21;99773.91;5075320;28;20051;-76
2022/06/20 03:53:23;;;;;;;7.55;3.88;;;;;;;24.53;50.27;99763.75;5073827;28;20501;-74
2022/06/20 03:56:14;;;;;;;;;;;;;;;24.88;49.12;99758.38;5075539;28;20398;-77
2022/06/20 03:58:48;;;;;;;7.75;4.10;;;;;;;25.11;49.21;99764.50;5075305;28;19928;-74
2022/06/20 04:01:24;;;;;;;8.75;3.78;;;;;;;25.64;47.50;99758.53;5074985;28;20047;-74
2022/06/20 04:03:59;;;;;;;7.60;4.05;;;;;;;25.66;47.08;99762.75;5074404;28;20455;-74
2022/06/20 04:06:33;;;;;;;8.30;3.83;;;;;;;26.20;45.63;99759.25;5074943;28;20052;-75
2022/06/20 04:12:11;;;;;;;6.57;3.67;;;;;;;27.16;43.32;99761.75;5012903;28;20049;-75
2022/06/20 04:14:46;;;;;;;6.20;3.72;;;;;;;27.84;41.71;99762.25;5062821;28;20053;-74
2022/06/20 04:20:16;;;;;;;8.02;4.20;;;;;;;28.05;41.28;99763.03;5074095;28;20036;-77
2022/06/20 04:22:47;;;;;;;8.20;4.18;;;;;;;28.22;41.43;99764.22;5074899;28;20040;-77
2022/06/20 04:25:26;;;;;;;6.90;3.83;;;;;;;28.38;40.85;99769.22;5073170;28;20060;-78
2022/06/20 04:28:01;;;;;;;7.75;3.88;;;;;;;28.37;40.98;99763.94;5074668;28;20128;-75
2022/06/20 04:30:34;;;;;;;6.63;3.67;;;;;;;29.35;38.15;99753.31;5074463;28;20474;-75
2022/06/20 04:33:11;;;;;;;9.35;3.90;;;;;;;28.90;38.93;99761.72;5074607;28;20051;-76
2022/06/20 04:35:44;;;;;;;7.55;3.88;;;;;;;29.24;38.94;99767.75;5073518;28;20059;-76
2022/06/20 04:38:17;;;;;;;6.13;3.58;;;;;;;29.03;39.00;99766.25;5074094;28;20147;-76
2022/06/20 04:40:52;;;;;;;6.72;3.90;;;;;;;29.71;37.80;99769.00;5073477;28;20056;-75
2022/06/20 04:43:26;;;;;;;8.15;3.67;;;;;;;30.74;35.63;99765.38;5074342;28;20094;-76
2022/06/20 04:46:00;;;;;;;5.65;3.60;;;;;;;30.60;35.52;99761.97;5074052;28;20123;-75
2022/06/20 04:48:29;;;;;;;6.15;3.58;;;;;;;29.89;36.71;99768.16;5073759;28;20048;-75
2022/06/20 04:51:00;;;;;;;10.10;4.20;;;;;;;30.28;36.19;99771.53;5074207;28;20037;-76
2022/06/20 04:53:33;;;;;;;6.75;3.95;;;;;;;30.48;36.06;99767.41;5073881;28;20090;-77
2022/06/20 04:56:05;;;;;;;7.40;3.70;;;;;;;30.41;36.29;99763.09;5074295;28;20068;-76
2022/06/20 04:58:37;;;;;;;8.93;3.73;;;;;;;30.49;35.51;99749.81;5073829;28;20068;-76
2022/06/20 05:01:08;;;;;;;7.97;3.77;;;;;;;30.28;36.51;99757.75;5074976;28;20389;-75
2022/06/20 05:03:47;;;;;;;6.97;3.72;;;;;;;30.26;36.16;99765.41;5074198;28;20043;-75
2022/06/20 05:06:20;;;;;;;9.15;4.20;;;;;;;30.95;34.85;99763.97;5073745;28;20055;-74
2022/06/20 05:08:51;;;;;;;8.90;3.75;;;;;;;30.57;35.23;99773.44;5073754;28;20044;-72
2022/06/20 05:11:25;;;;;;;8.07;4.00;;;;;;;29.99;36.31;99779.47;5073539;28;20094;-73
2022/06/20 05:14:02;;;;;;;7.25;3.53;;;;;;;30.43;35.21;99767.28;5073656;28;20041;-72
2022/06/20 05:16:34;;;;;;;8.85;3.78;;;;;;;30.60;34.75;99772.16;5073314;28;20051;-71
2022/06/20 05:19:08;;;;;;;9.82;3.60;;;;;;;31.29;34.13;99771.50;5073721;28;20041;-78
2022/06/20 05:21:40;;;;;;;9.13;3.90;;;;;;;31.59;33.08;99771.34;5071922;28;20101;-74
2022/06/20 05:24:13;;;;;;;7.57;3.80;;;;;;;31.48;33.23;99772.22;5073082;28;20044;-77
2022/06/20 05:26:44;;;;;;;7.35;3.88;;;;;;;32.32;31.66;99769.91;5073504;28;20478;-79
2022/06/20 05:29:17;;;;;;;7.03;3.92;;;;;;;32.24;31.76;99773.06;5072433;28;20090;-77
2022/06/20 05:31:53;;;;;;;8.07;3.92;;;;;;;32.15;31.92;99774.53;5072341;28;20056;-77
2022/06/20 05:34:28;;;;;;;8.38;4.18;;;;;;;32.37;31.28;99769.19;5073580;28;20033;-78
2022/06/20 05:37:03;;;;;;;9.35;4.10;;;;;;;32.33;31.68;99771.63;5073305;28;20449;-78
2022/06/20 05:39:38;;;;;;;7.55;3.95;;;;;;;32.82;31.45;99776.66;5072701;28;20068;-74
2022/06/20 05:42:07;;;;;;;8.68;4.20;;;;;;;33.11;30.09;99771.94;5072741;28;20418;-77
2022/06/20 05:44:35;;;;;;;7.00;3.70;;;;;;;33.01;30.38;99767.91;5072906;28;20029;-77
2022/06/20 05:47:08;;;;;;;10.98;4.78;;;;;;;32.99;30.12;99764.53;5071272;28;20052;-75
2022/06/20 05:49:44;;;;;;;7.65;4.03;;;;;;;33.06;30.64;99769.91;5070277;28;20120;-76
2022/06/20 05:52:19;;;;;;;7.68;4.00;;;;;;;33.17;30.79;99773.66;5072385;28;20052;-75
2022/06/20 05:54:53;;;;;;;7.13;3.90;;;;;;;33.65;30.32;99769.44;5074399;28;20052;-76
2022/06/20 05:57:25;;;;;;;6.72;3.65;;;;;;;33.86;29.25;99768.63;5073855;28;20075;-77
2022/06/20 05:59:58;;;;;;;8.30;4.10;;;;;;;33.73;29.51;99769.00;5074996;28;20066;-78
2022/06/20 06:02:32;;;;;;;7.40;4.05;;;;;;;33.91;29.13;99777.03;5074487;28;20049;-73
2022/06/20 06:05:13;;;;;;;6.95;3.88;;;;;;;33.75;29.35;99775.13;5062121;28;20159;-81
2022/06/20 06:07:46;;;;;;;8.35;4.00;;;;;;;33.34;30.04;99787.47;5059448;28;20064;-87
2022/06/20 06:10:31;;;;;;;5.97;3.67;;;;;;;33.73;29.87;99796.66;5060284;28;20090;-87
2022/06/20 06:13:11;;;;;;;7.15;3.88;;;;;;;33.73;29.38;99785.59;5073973;28;20037;-85
2022/06/20 06:16:46;;;;;;;7.60;3.88;;;;;;;33.94;29.21;99782.06;5074258;28;20036;-88
2022/06/20 06:18:39;;;;;;;8.45;3.80;;;;;;;34.04;29.60;99779.41;5076388;28;20119;-89
2022/06/20 06:21:09;;;;;;;6.95;3.92;;;;;;;34.27;28.88;99772.78;5070743;28;20114;-87
2022/06/20 06:23:41;;;;;;;6.72;3.92;;;;;;;34.82;28.18;99776.41;5075393;28;20041;-86
2022/06/20 06:26:13;;;;;;;6.05;3.78;;;;;;;34.78;27.93;99770.56;5075102;28;20040;-80
2022/06/20 06:28:42;;;;;;;9.57;4.10;;;;;;;34.70;27.97;99768.28;5074080;28;20040;-83
2022/06/20 06:31:17;;;;;;;9.65;4.45;;;;;;;34.72;27.89;99769.69;5074013;28;20047;-75
2022/06/20 06:33:51;;;;;;;8.07;3.90;;;;;;;35.24;26.71;99768.22;5073964;28;20371;-81
2022/06/20 06:36:27;;;;;;;7.60;3.85;;;;;;;35.49;26.40;99764.81;5073947;28;20036;-80
2022/06/20 06:38:59;;;;;;;8.90;4.32;;;;;;;34.70;28.08;99769.13;5073078;28;20051;-79
2022/06/20 06:41:30;;;;;;;13.10;5.15;;;;;;;34.99;27.46;99771.63;5073968;28;20048;-77
2022/06/20 06:44:00;;;;;;;8.13;3.67;;;;;;;35.18;26.79;99766.50;5076681;28;20052;-77
2022/06/20 06:46:33;;;;;;;8.88;4.03;;;;;;;34.61;27.49;99769.84;5077518;28;20048;-78
2022/06/20 06:49:17;;;;;;;8.90;4.18;;;;;;;34.13;28.82;99768.72;5077980;28;20056;-77
2022/06/20 06:51:55;;;;;;;6.97;4.05;;;;;;;35.00;27.23;99767.75;5076259;28;20053;-77
2022/06/20 06:54:27;;;;;;;8.02;3.95;;;;;;;35.03;27.24;99767.22;5077407;28;20033;-77
2022/06/20 06:57:00;;;;;;;6.00;3.57;;;;;;;34.95;28.27;99764.94;5076349;28;20054;-77
2022/06/20 06:59:38;;;;;;;8.23;3.67;;;;;;;35.20;28.63;99765.13;5076974;28;20121;-77
2022/06/20 07:02:14;;;;;;;7.38;3.83;;;;;;;34.25;29.79;99766.66;5078329;28;20044;-77
2022/06/20 07:04:49;;;;;;;7.18;3.70;;;;;;;33.30;30.42;99765.06;5078192;28;20095;-77
2022/06/20 07:07:25;;;;;;;10.63;4.55;;;;;;;33.09;30.67;99746.44;5076135;28;20060;-77
2022/06/20 07:09:56;;;;;;;11.02;4.13;;;;;;;32.35;32.37;99741.00;5077615;28;20127;-77
2022/06/20 07:12:28;;;;;;;6.75;3.70;;;;;;;32.23;32.20;99743.75;5076825;28;20490;-78
2022/06/20 07:15:07;;;;;;;8.90;3.95;;;;;;;32.39;32.33;99737.50;5078399;28;20045;-78
2022/06/20 07:17:43;;;;;;;8.98;4.32;;;;;;;32.01;32.16;99726.22;5076410;28;20041;-77
2022/06/20 07:20:13;;;;;;;11.10;4.47;;;;;;;31.67;33.44;99723.28;5076908;28;20106;-78
2022/06/20 07:22:44;;;;;;;9.77;4.20;;;;;;;31.88;32.15;99727.34;5075354;28;20071;-78
2022/06/20 07:25:18;;;;;;;9.15;4.13;;;;;;;31.69;32.45;99726.63;5077413;28;20402;-78
2022/06/20 07:27:52;;;;;;;9.23;4.05;;;;;;;31.62;32.30;99715.72;5077261;28;20063;-78
2022/06/20 07:30:25;;;;;;;7.57;4.15;;;;;;;31.19;32.81;99710.59;5077308;28;20036;-78
2022/06/20 07:32:59;;;;;;;6.57;4.03;;;;;;;31.25;32.96;99709.66;5074968;28;20044;-78
2022/06/20 07:35:33;;;;;;;10.30;4.50;;;;;;;31.24;32.86;99710.75;5076010;28;20049;-78
2022/06/20 07:38:09;;;;;;;10.38;4.80;;;;;;;31.34;33.26;99699.94;5075616;28;20052;-78
2022/06/20 07:40:48;;;;;;;8.77;5.00;;;;;;;31.11;33.96;99699.94;5077080;28;20049;-78
2022/06/20 07:43:21;;;;;;;8.32;4.45;;;;;;;30.92;34.00;99701.97;5076373;28;20044;-78
2022/06/20 07:45:52;;;;;;;7.93;4.43;;;;;;;30.78;34.58;99701.34;5075580;28;20126;-78
2022/06/20 07:48:28;;;;;;;10.20;5.00;;;;;;;30.99;33.61;99705.47;5075552;28;20056;-78
2022/06/20 07:51:00;;;;;;;7.78;4.32;;;;;;;30.71;33.91;99697.03;5076408;28;20044;-79
2022/06/20 07:53:37;;;;;;;15.57;5.15;;;;;;;30.81;34.00;99701.97;5075397;28;20076;-79
2022/06/20 07:56:10;;;;;;;9.00;4.28;;;;;;;30.83;34.60;99694.31;5076737;28;20120;-78
2022/06/20 07:58:43;;;;;;;9.15;3.92;;;;;;;30.56;35.08;99700.19;5077179;28;20101;-79
2022/06/20 08:01:19;;;;;;;7.40;4.32;;;;;;;30.44;35.81;99696.59;5076873;28;20040;-79
2022/06/20 08:03:54;;;;;;;11.32;4.53;;;;;;;30.51;35.94;99702.84;5075935;28;20402;-78
2022/06/20 08:06:28;;;;;;;10.75;4.80;;;;;;;30.62;35.67;99695.69;5076193;28;20041;-77
2022/06/20 08:09:03;;;;;;;11.90;4.70;;;;;;;30.63;35.49;99689.09;5077480;28;20120;-77
2022/06/20 08:11:41;;;;;;;10.60;4.45;;;;;;;30.65;36.36;99687.81;5074992;28;20044;-79
2022/06/20 08:14:17;;;;;;;5.88;4.30;;;;;;;30.46;36.69;99692.53;5075694;28;20162;-79
2022/06/20 08:16:49;;;;;;;8.75;4.63;;;;;;;30.65;35.81;99687.81;5074720;28;20041;-79
2022/06/20 08:19:18;;;;;;;8.03;4.77;;;;;;;30.63;36.94;99686.34;5074648;28;20056;-77
2022/06/20 08:21:53;;;;;;;9.93;5.22;;;;;;;30.75;36.63;99676.22;5073845;28;20409;-77
2022/06/20 08:24:26;;;;;;;7.60;5.10;;;;;;;30.60;36.67;99684.06;5073212;28;20052;-79
2022/06/20 08:27:00;;;;;;;9.18;4.70;;;;;;;30.67;36.47;99682.91;5075773;28;20047;-79
2022/06/20 08:29:34;;;;;;;7.22;4.70;;;;;;;30.66;36.95;99695.00;5074478;28;20044;-78
2022/06/20 08:32:14;;;;;;;9.10;4.70;;;;;;;30.64;37.06;99688.00;5075715;28;20068;-77
2022/06/20 08:34:50;;;;;;;12.02;5.20;;;;;;;30.85;37.16;99673.72;5072933;28;20046;-78
2022/06/20 08:37:26;;;;;;;8.07;4.22;;;;;;;30.98;36.75;99670.75;5077042;28;20196;-77
2022/06/20 08:40:09;;;;;;;6.18;4.32;;;;;;;30.93;36.38;99670.59;5076201;28;20059;-77
2022/06/20 08:43:15;;;;;;;9.70;4.50;;;;;;;30.60;37.10;99665.66;5075936;28;20056;-79
2022/06/20 08:46:19;;;;;;;8.18;5.10;;;;;;;30.73;37.12;99667.34;5075788;28;20041;-77
2022/06/20 08:49:28;;;;;;;8.55;4.53;;;;;;;30.68;37.22;99672.72;5074983;28;20059;-79
2022/06/20 08:52:35;;;;;;;6.32;4.28;;;;;;;30.73;37.51;99667.34;5076099;28;20052;-78
2022/06/20 08:55:42;;;;;;;11.23;5.10;;;;;;;30.73;37.07;99662.69;5074263;28;20456;-79
2022/06/20 08:58:19;;;;;;;10.38;5.13;;;;;;;30.57;37.22;99668.84;5075858;28;20044;-77
2022/06/20 09:00:56;;;;;;;9.00;4.43;;;;;;;30.83;37.01;99661.25;5074136;28;20048;-78
2022/06/20 09:04:00;;;;;;;9.48;5.50;;;;;;;30.67;37.96;99655.38;5074197;28;20076;-79
2022/06/20 09:06:49;;;;;;;10.27;5.47;;;;;;;30.86;37.57;99650.59;5074016;28;20122;-79
2022/06/20 09:09:53;;;;;;;10.45;5.97;;;;;;;31.12;36.78;99654.78;5075667;28;20048;-79
2022/06/20 09:12:44;;;;;;;10.38;5.68;;;;;;;31.25;36.17;99637.19;5074033;28;20048;-79
2022/06/20 09:15:26;;;;;;;10.43;5.32;;;;;;;31.14;36.47;99636.09;5075724;28;20044;-79
2022/06/20 09:18:02;;;;;;;7.97;5.30;;;;;;;31.15;36.59;99635.03;5074316;28;20041;-79
2022/06/20 09:20:38;;;;;;;12.07;5.93;;;;;;;31.13;35.93;99636.34;5076079;28;20550;-79
2022/06/20 09:23:24;;;;;;;9.20;5.13;;;;;;;31.00;36.40;99632.78;5074452;28;20111;-80
2022/06/20 09:25:58;;;;;;;8.52;4.97;;;;;;;30.93;36.17;99623.78;5075335;28;20105;-79
2022/06/20 09:28:45;;;;;;;8.40;5.50;;;;;;;30.92;36.63;99629.53;5076051;28;20044;-79
2022/06/20 09:31:33;;;;;;;14.40;5.50;;;;;;;31.11;36.66;99622.81;5074745;28;20123;-79
2022/06/20 09:34:34;;;;;;;7.35;4.78;;;;;;;31.37;35.37;99610.47;5073923;28;20413;-78
2022/06/20 09:37:23;;;;;;;6.95;4.65;;;;;;;31.34;35.47;99608.19;5075722;28;20044;-79
2022/06/20 09:40:07;;;;;;;8.38;5.15;;;;;;;31.33;35.35;99596.34;5075330;28;20060;-79
2022/06/20 09:42:43;;;;;;;6.80;4.72;;;;;;;31.16;35.70;99584.38;5072974;28;20052;-79
2022/06/20 09:45:21;;;;;;;6.65;4.78;;;;;;;31.23;35.44;99587.84;5075302;28;20040;-79
2022/06/20 09:48:02;;;;;;;8.27;4.90;;;;;;;31.45;34.86;99592.72;5075323;28;20075;-80
2022/06/20 09:50:53;;;;;;;9.80;5.05;;;;;;;31.28;35.65;99581.63;5075730;28;20047;-79
2022/06/20 09:53:53;;;;;;;7.90;4.85;;;;;;;31.31;35.38;99581.97;5075180;28;20044;-79
2022/06/20 09:56:28;;;;;;;7.32;4.53;;;;;;;31.34;34.67;99591.66;5058483;28;20117;-78
2022/06/20 09:59:04;;;;;;;8.45;4.47;;;;;;;31.52;34.33;99585.16;5072798;28;20049;-79
2022/06/20 10:01:41;;;;;;;7.90;4.95;;;;;;;31.45;34.92;99576.16;5074132;28;20052;-78
2022/06/20 10:04:18;;;;;;;7.80;4.72;;;;;;;31.34;35.20;99573.22;5074709;28;20378;-79
2022/06/20 10:06:58;;;;;;;9.02;4.85;;;;;;;31.34;35.20;99570.47;5073089;28;20051;-79
2022/06/20 10:09:36;;;;;;;8.35;4.82;;;;;;;31.58;34.97;99573.97;5072170;28;20056;-79
2022/06/20 10:12:12;;;;;;;7.85;4.88;;;;;;;31.66;34.43;99572.75;5073757;28;20047;-79
2022/06/20 10:14:49;;;;;;;7.32;5.00;;;;;;;31.71;34.50;99561.81;5072893;28;20048;-79
2022/06/20 10:17:26;;;;;;;12.27;5.22;;;;;;;31.68;34.55;99553.22;5075615;28;20040;-79
2022/06/20 10:20:06;;;;;;;9.43;5.18;;;;;;;31.79;34.40;99558.69;5077103;28;20044;-79
2022/06/20 10:22:51;;;;;;;11.93;5.65;;;;;;;31.92;34.36;99560.28;5076825;28;20500;-79
2022/06/20 10:25:40;;;;;;;7.25;5.47;;;;;;;31.84;33.90;99552.41;5077682;28;20124;-79
2022/06/20 10:28:15;;;;;;;8.80;4.63;;;;;;;31.85;33.72;99552.19;5076048;28;20098;-79
2022/06/20 10:30:48;;;;;;;5.72;4.05;;;;;;;31.85;33.83;99546.69;5077144;28;20048;-79
2022/06/20 10:33:30;;;;;;;5.93;3.75;;;;;;;31.99;33.57;99546.34;5077620;28;20036;-79
2022/06/20 10:36:13;;;;;;;8.00;3.90;;;;;;;31.99;33.76;99554.63;5075738;28;20112;-79
2022/06/20 10:38:44;;;;;;;7.20;4.55;;;;;;;32.08;33.66;99553.13;5075838;28;20135;-80
2022/06/20 10:41:21;;;;;;;7.88;3.65;;;;;;;32.07;33.34;99541.28;5077024;28;20044;-79
2022/06/20 10:43:59;;;;;;;7.75;3.88;;;;;;;32.14;33.32;99539.19;5075443;28;20067;-79
2022/06/20 10:46:39;;;;;;;6.45;3.92;;;;;;;32.06;33.75;99544.28;5076868;28;20040;-79
2022/06/20 10:49:35;;;;;;;14.85;4.38;;;;;;;32.18;33.38;99542.28;5076809;28;20375;-79
2022/06/20 10:52:20;;;;;;;7.90;4.38;;;;;;;32.31;33.26;99543.88;5077007;28;20110;-79
2022/06/20 10:55:00;;;;;;;8.23;4.22;;;;;;;32.20;33.30;99537.34;5075951;28;20135;-79
2022/06/20 10:57:44;;;;;;;6.05;3.80;;;;;;;32.36;33.24;99539.31;5077813;28;20083;-78
2022/06/20 11:00:15;;;;;;;6.68;4.30;;;;;;;32.35;33.44;99540.38;5077644;28;20470;-78
2022/06/20 11:03:07;;;;;;;11.55;4.53;;;;;;;32.35;33.17;99542.31;5076998;28;20083;-77
2022/06/20 11:05:42;;;;;;;7.40;4.40;;;;;;;32.36;33.77;99528.25;5078492;28;20127;-79
2022/06/20 11:08:29;;;;;;;8.73;4.40;;;;;;;32.45;32.65;99526.75;5077878;28;20509;-79
2022/06/20 11:11:10;;;;;;;7.93;4.88;;;;;;;32.28;33.57;99525.88;5077280;28;20052;-80
2022/06/20 11:13:50;;;;;;;8.15;4.40;;;;;;;32.25;33.80;99518.13;5076398;28;20432;-79
2022/06/20 11:16:28;;;;;;;8.10;4.45;;;;;;;32.32;33.93;99518.78;5077626;28;20119;-79
2022/06/20 11:19:13;;;;;;;7.50;4.40;;;;;;;32.27;33.58;99507.66;5077534;28;20041;-79
2022/06/20 11:21:53;;;;;;;6.38;4.20;;;;;;;32.24;33.90;99508.19;5077142;28;20057;-79
2022/06/20 11:24:33;;;;;;;7.55;4.30;;;;;;;32.37;33.60;99494.06;5076139;28;20055;-80
2022/06/20 11:27:16;;;;;;;8.98;4.43;;;;;;;32.45;33.76;99504.66;5075495;28;20048;-79
2022/06/20 11:30:02;;;;;;;8.40;4.38;;;;;;;32.54;32.82;99495.97;5076842;28;20045;-77
2022/06/20 11:32:43;;;;;;;8.10;4.70;;;;;;;32.53;33.35;99503.41;5076073;28;20489;-77
2022/06/20 11:35:31;;;;;;;7.10;4.35;;;;;;;32.54;33.63;99512.53;5074571;28;20554;-77
2022/06/20 11:38:21;;;;;;;6.93;4.60;;;;;;;32.59;33.07;99516.19;5073339;28;20045;-77
2022/06/20 11:40:59;;;;;;;8.85;4.25;;;;;;;32.65;32.74;99511.56;5074334;28;20045;-78
2022/06/20 11:44:06;;;;;;;9.23;4.75;;;;;;;32.61;33.01;99514.00;5076186;28;20116;-79
2022/06/20 11:46:53;;;;;;;6.72;4.30;;;;;;;32.49;33.11;99517.94;5060565;28;20059;-79
2022/06/20 11:49:41;;;;;;;11.35;4.57;;;;;;;32.55;32.79;99512.25;5074294;28;20044;-78
2022/06/20 11:52:18;;;;;;;7.00;4.22;;;;;;;32.52;32.36;99501.72;5076000;28;20044;-79
2022/06/20 11:54:59;;;;;;;9.43;4.75;;;;;;;32.74;32.43;99507.28;5075096;28;20049;-79
2022/06/20 11:57:44;;;;;;;9.48;4.20;;;;;;;32.68;32.10;99519.34;5073742;28;20052;-78
2022/06/20 12:00:19;;;;;;;7.47;4.40;;;;;;;32.60;32.77;99511.50;5074449;28;20048;-79
2022/06/20 12:03:00;;;;;;;8.18;4.05;;;;;;;32.58;32.67;99513.69;5075255;28;20134;-78
2022/06/20 12:05:36;;;;;;;9.98;4.00;;;;;;;32.60;32.58;99514.25;5075446;28;20090;-78
2022/06/20 12:08:26;;;;;;;5.90;3.78;;;;;;;32.65;32.52;99509.66;5075729;28;20061;-78
2022/06/20 12:10:58;;;;;;;8.15;4.47;;;;;;;32.82;32.47;99495.81;5075707;28;20115;-78
2022/06/20 12:13:42;;;;;;;5.97;4.05;;;;;;;32.90;31.70;99500.88;5075497;28;20045;-79
2022/06/20 12:16:28;;;;;;;7.43;4.43;;;;;;;32.74;32.27;99501.75;5076309;28;20500;-79
2022/06/20 12:24:50;;;;;;;9.07;4.40;;;;;;;32.87;31.04;99479.31;5073948;28;20517;-78
2022/06/20 12:27:21;;;;;;;10.35;4.63;;;;;;;32.92;31.02;99482.16;5075156;28;20048;-78
2022/06/20 12:29:50;;;;;;;10.20;4.75;;;;;;;32.87;30.94;99479.31;5075929;28;20072;-78
2022/06/20 12:32:21;;;;;;;10.27;4.40;;;;;;;32.86;30.53;99471.28;5074738;28;20048;-79
2022/06/20 12:34:58;;;;;;;8.00;4.23;;;;;;;32.79;31.24;99467.84;5075783;28;20048;-80